This is the latest recevied weather packets stored in our database for station/object W8BS. If no packets are shown the sender has not sent any weather packets the latest 1 day(s).
| Time | Temp. | Humidity | Pressure | Rain* | Wind** | Luminosity | Snow |
|---|---|---|---|---|---|---|---|
| 1777980104 | 16.11° C | 63% | 1012.6 hPa | 0 mm | 0.89 m/s, 189° | 53 W/m² | - |
| 1777979803 | 15.56° C | 64% | 1012.5 hPa | 0 mm | 1.34 m/s, 144° | 46 W/m² | - |
| 1777979499 | 15.56° C | 65% | 1012.4 hPa | 0 mm | 1.34 m/s, 203° | 37 W/m² | - |
| 1777979195 | 15.56° C | 64% | 1012.5 hPa | 0 mm | 1.34 m/s, 202° | 29 W/m² | - |
| 1777978893 | 15.56° C | 64% | 1012.4 hPa | 0 mm | 1.34 m/s, 173° | 28 W/m² | - |
| 1777978590 | 15.56° C | 64% | 1012.6 hPa | 0 mm | 0.45 m/s, 211° | 31 W/m² | - |
| 1777978285 | 15.56° C | 65% | 1012.2 hPa | 0 mm | 1.79 m/s, 229° | 26 W/m² | - |
| 1777977982 | 15.56° C | 65% | 1012.2 hPa | 0 mm | 0.89 m/s, 184° | 21 W/m² | - |
| 1777977680 | 15.56° C | 65% | 1012.1 hPa | 0 mm | 1.79 m/s, 217° | 16 W/m² | - |
| 1777977376 | 15.56° C | 66% | 1012.2 hPa | 0 mm | 0.89 m/s, 213° | 10 W/m² | - |
| 1777977074 | 15.56° C | 65% | 1012.2 hPa | 0 mm | 1.34 m/s, 214° | 6 W/m² | - |
| 1777976771 | 15.56° C | 65% | 1011.9 hPa | 0 mm | 0.89 m/s, 195° | 5 W/m² | - |
| 1777976469 | 15.56° C | 65% | 1011.8 hPa | 0 mm | 1.34 m/s, 240° | 3 W/m² | - |
| 1777976167 | 15.56° C | 65% | 1011.8 hPa | 0 mm | 1.34 m/s, 202° | 1 W/m² | - |
| 1777975863 | 15.56° C | 65% | 1011.5 hPa | 0 mm | 3.13 m/s, 263° | 0 W/m² | - |
| 1777975559 | 15.56° C | 64% | 1011.2 hPa | 0 mm | 1.34 m/s, 202° | 0 W/m² | - |
| 1777975256 | 15.56° C | 65% | 1011.6 hPa | 0 mm | 1.34 m/s, 214° | 0 W/m² | - |
| 1777974953 | 15.56° C | 65% | 1011.6 hPa | 0 mm | 0.89 m/s, 214° | 0 W/m² | - |
| 1777974649 | 15.56° C | 64% | 1011.4 hPa | 0 mm | 0.45 m/s, 183° | 0 W/m² | - |
| 1777974345 | 15.56° C | 64% | 1011.4 hPa | 0 mm | 1.34 m/s, 228° | 0 W/m² | - |
| 1777974042 | 16.11° C | 65% | 1011.4 hPa | 0 mm | 0.89 m/s, 186° | 0 W/m² | - |
| 1777973738 | 15.56° C | 64% | 1011.3 hPa | 0 mm | 0.89 m/s, 202° | 0 W/m² | - |
| 1777973436 | 15.56° C | 64% | 1011.2 hPa | 0 mm | 0.45 m/s, 193° | 0 W/m² | - |
| 1777973133 | 16.11° C | 64% | 1011.2 hPa | 0 mm | 0.89 m/s, 209° | 0 W/m² | - |
| 1777972831 | 15.56° C | 63% | 1011.1 hPa | 0 mm | 0.89 m/s, 188° | 0 W/m² | - |
* Rain latest hour (hover to see other rain measurements)
** Current wind speed in m/s (hover to see current wind gust speed)